sensor_id;sensor_type;location;lat;lon;timestamp;P1;durP1;ratioP1;P2;durP2;ratioP2
73776;SDS011;62088;50.240;2.696;2022-12-18T00:01:20;75.07;;;33.45;;
73776;SDS011;62088;50.240;2.696;2022-12-18T00:03:49;77.70;;;31.90;;
73776;SDS011;62088;50.240;2.696;2022-12-18T00:06:17;70.05;;;30.88;;
73776;SDS011;62088;50.240;2.696;2022-12-18T00:08:45;70.50;;;29.77;;
73776;SDS011;62088;50.240;2.696;2022-12-18T00:11:13;65.80;;;28.73;;
73776;SDS011;62088;50.240;2.696;2022-12-18T00:13:42;60.97;;;29.05;;
73776;SDS011;62088;50.240;2.696;2022-12-18T00:16:11;61.78;;;28.23;;
73776;SDS011;62088;50.240;2.696;2022-12-18T00:18:40;53.03;;;26.13;;
73776;SDS011;62088;50.240;2.696;2022-12-18T00:21:09;61.25;;;28.27;;
73776;SDS011;62088;50.240;2.696;2022-12-18T00:23:37;63.95;;;28.33;;
73776;SDS011;62088;50.240;2.696;2022-12-18T00:26:08;52.42;;;24.58;;
73776;SDS011;62088;50.240;2.696;2022-12-18T00:28:39;52.20;;;25.80;;
73776;SDS011;62088;50.240;2.696;2022-12-18T00:31:11;49.28;;;25.33;;
73776;SDS011;62088;50.240;2.696;2022-12-18T00:33:40;58.17;;;26.92;;
73776;SDS011;62088;50.240;2.696;2022-12-18T00:36:12;52.03;;;26.70;;
73776;SDS011;62088;50.240;2.696;2022-12-18T00:38:41;59.95;;;27.35;;
73776;SDS011;62088;50.240;2.696;2022-12-18T00:41:09;46.72;;;24.58;;
73776;SDS011;62088;50.240;2.696;2022-12-18T00:43:37;57.47;;;27.15;;
73776;SDS011;62088;50.240;2.696;2022-12-18T00:46:06;53.42;;;25.25;;
73776;SDS011;62088;50.240;2.696;2022-12-18T00:48:33;47.90;;;24.00;;
73776;SDS011;62088;50.240;2.696;2022-12-18T00:51:00;52.55;;;26.70;;
73776;SDS011;62088;50.240;2.696;2022-12-18T00:53:27;54.58;;;24.65;;
73776;SDS011;62088;50.240;2.696;2022-12-18T00:55:55;52.00;;;25.83;;
73776;SDS011;62088;50.240;2.696;2022-12-18T00:58:22;46.38;;;24.48;;
73776;SDS011;62088;50.240;2.696;2022-12-18T01:00:49;51.38;;;27.02;;
73776;SDS011;62088;50.240;2.696;2022-12-18T01:03:16;51.33;;;27.42;;
73776;SDS011;62088;50.240;2.696;2022-12-18T01:05:43;54.95;;;26.02;;
73776;SDS011;62088;50.240;2.696;2022-12-18T01:08:10;54.33;;;27.05;;
73776;SDS011;62088;50.240;2.696;2022-12-18T01:10:40;52.50;;;27.45;;
73776;SDS011;62088;50.240;2.696;2022-12-18T01:13:07;56.13;;;27.23;;
73776;SDS011;62088;50.240;2.696;2022-12-18T01:15:35;47.47;;;26.08;;
73776;SDS011;62088;50.240;2.696;2022-12-18T01:18:02;46.20;;;25.80;;
73776;SDS011;62088;50.240;2.696;2022-12-18T01:20:29;47.72;;;23.77;;
73776;SDS011;62088;50.240;2.696;2022-12-18T01:22:56;50.08;;;27.65;;
73776;SDS011;62088;50.240;2.696;2022-12-18T01:25:23;47.22;;;26.65;;
73776;SDS011;62088;50.240;2.696;2022-12-18T01:27:51;54.95;;;27.83;;
73776;SDS011;62088;50.240;2.696;2022-12-18T01:30:18;48.28;;;24.95;;
73776;SDS011;62088;50.240;2.696;2022-12-18T01:32:45;49.50;;;25.02;;
73776;SDS011;62088;50.240;2.696;2022-12-18T01:35:12;46.65;;;26.77;;
73776;SDS011;62088;50.240;2.696;2022-12-18T01:37:39;57.10;;;29.00;;
73776;SDS011;62088;50.240;2.696;2022-12-18T01:40:06;54.97;;;28.75;;
73776;SDS011;62088;50.240;2.696;2022-12-18T01:42:34;48.70;;;25.02;;
73776;SDS011;62088;50.240;2.696;2022-12-18T01:47:45;57.33;;;28.38;;
73776;SDS011;62088;50.240;2.696;2022-12-18T01:52:53;59.30;;;28.88;;
73776;SDS011;62088;50.240;2.696;2022-12-18T01:55:23;57.40;;;27.85;;
73776;SDS011;62088;50.240;2.696;2022-12-18T01:57:54;40.63;;;23.63;;
73776;SDS011;62088;50.240;2.696;2022-12-18T02:00:23;52.83;;;26.45;;
73776;SDS011;62088;50.240;2.696;2022-12-18T02:02:52;50.50;;;26.23;;
73776;SDS011;62088;50.240;2.696;2022-12-18T02:08:05;50.33;;;27.73;;
73776;SDS011;62088;50.240;2.696;2022-12-18T02:13:30;42.80;;;23.48;;
73776;SDS011;62088;50.240;2.696;2022-12-18T02:18:49;47.65;;;26.20;;
73776;SDS011;62088;50.240;2.696;2022-12-18T02:21:29;49.80;;;26.05;;
73776;SDS011;62088;50.240;2.696;2022-12-18T02:24:32;43.85;;;23.65;;
73776;SDS011;62088;50.240;2.696;2022-12-18T02:26:53;49.25;;;25.33;;
73776;SDS011;62088;50.240;2.696;2022-12-18T02:29:31;45.90;;;24.42;;
73776;SDS011;62088;50.240;2.696;2022-12-18T02:32:06;44.35;;;24.75;;
73776;SDS011;62088;50.240;2.696;2022-12-18T02:34:38;40.85;;;23.08;;
73776;SDS011;62088;50.240;2.696;2022-12-18T02:37:12;40.17;;;23.95;;
73776;SDS011;62088;50.240;2.696;2022-12-18T02:39:43;45.50;;;23.77;;
73776;SDS011;62088;50.240;2.696;2022-12-18T02:42:13;41.70;;;23.27;;
73776;SDS011;62088;50.240;2.696;2022-12-18T02:44:42;43.17;;;24.67;;
73776;SDS011;62088;50.240;2.696;2022-12-18T02:47:22;51.85;;;26.15;;
73776;SDS011;62088;50.240;2.696;2022-12-18T02:52:50;45.80;;;25.35;;
73776;SDS011;62088;50.240;2.696;2022-12-18T02:58:39;39.97;;;22.27;;
73776;SDS011;62088;50.240;2.696;2022-12-18T03:04:11;43.42;;;23.10;;
73776;SDS011;62088;50.240;2.696;2022-12-18T03:06:49;41.30;;;23.92;;
73776;SDS011;62088;50.240;2.696;2022-12-18T03:09:22;41.15;;;22.75;;
73776;SDS011;62088;50.240;2.696;2022-12-18T03:11:58;41.22;;;22.00;;
73776;SDS011;62088;50.240;2.696;2022-12-18T03:14:50;42.80;;;23.42;;
73776;SDS011;62088;50.240;2.696;2022-12-18T03:17:22;39.60;;;21.60;;
73776;SDS011;62088;50.240;2.696;2022-12-18T03:19:52;38.08;;;20.48;;
73776;SDS011;62088;50.240;2.696;2022-12-18T03:22:22;43.35;;;23.92;;
73776;SDS011;62088;50.240;2.696;2022-12-18T03:24:53;42.75;;;21.83;;
73776;SDS011;62088;50.240;2.696;2022-12-18T03:27:23;38.80;;;21.98;;
73776;SDS011;62088;50.240;2.696;2022-12-18T03:29:56;39.80;;;21.70;;
73776;SDS011;62088;50.240;2.696;2022-12-18T03:32:39;35.90;;;20.90;;
73776;SDS011;62088;50.240;2.696;2022-12-18T03:35:27;37.45;;;20.65;;
73776;SDS011;62088;50.240;2.696;2022-12-18T03:37:58;37.88;;;21.58;;
73776;SDS011;62088;50.240;2.696;2022-12-18T03:40:31;30.55;;;18.40;;
73776;SDS011;62088;50.240;2.696;2022-12-18T03:49:03;43.17;;;22.00;;
73776;SDS011;62088;50.240;2.696;2022-12-18T03:51:39;41.80;;;22.02;;
73776;SDS011;62088;50.240;2.696;2022-12-18T03:54:19;38.88;;;20.85;;
73776;SDS011;62088;50.240;2.696;2022-12-18T03:56:59;41.20;;;22.98;;
73776;SDS011;62088;50.240;2.696;2022-12-18T03:59:30;40.17;;;20.55;;
73776;SDS011;62088;50.240;2.696;2022-12-18T04:01:58;41.22;;;23.30;;
73776;SDS011;62088;50.240;2.696;2022-12-18T04:04:28;50.30;;;22.85;;
73776;SDS011;62088;50.240;2.696;2022-12-18T04:06:59;40.22;;;21.55;;
73776;SDS011;62088;50.240;2.696;2022-12-18T04:09:27;40.90;;;22.90;;
73776;SDS011;62088;50.240;2.696;2022-12-18T04:11:54;46.40;;;22.88;;
73776;SDS011;62088;50.240;2.696;2022-12-18T04:14:22;43.55;;;21.38;;
73776;SDS011;62088;50.240;2.696;2022-12-18T04:16:53;36.72;;;21.23;;
73776;SDS011;62088;50.240;2.696;2022-12-18T04:19:26;35.78;;;20.77;;
73776;SDS011;62088;50.240;2.696;2022-12-18T04:21:53;40.55;;;21.98;;
73776;SDS011;62088;50.240;2.696;2022-12-18T04:24:21;41.08;;;23.45;;
73776;SDS011;62088;50.240;2.696;2022-12-18T04:27:11;41.65;;;23.23;;
73776;SDS011;62088;50.240;2.696;2022-12-18T04:29:42;39.45;;;22.40;;
73776;SDS011;62088;50.240;2.696;2022-12-18T04:32:09;41.42;;;22.05;;
73776;SDS011;62088;50.240;2.696;2022-12-18T04:34:38;40.35;;;20.85;;
73776;SDS011;62088;50.240;2.696;2022-12-18T04:37:05;38.88;;;21.00;;
73776;SDS011;62088;50.240;2.696;2022-12-18T04:39:32;50.35;;;22.65;;
73776;SDS011;62088;50.240;2.696;2022-12-18T04:42:05;40.25;;;21.80;;
73776;SDS011;62088;50.240;2.696;2022-12-18T04:44:33;37.78;;;20.95;;
73776;SDS011;62088;50.240;2.696;2022-12-18T04:47:00;38.22;;;21.75;;
73776;SDS011;62088;50.240;2.696;2022-12-18T04:49:27;37.05;;;20.98;;
73776;SDS011;62088;50.240;2.696;2022-12-18T04:51:54;36.58;;;19.95;;
73776;SDS011;62088;50.240;2.696;2022-12-18T04:54:21;35.95;;;20.83;;
73776;SDS011;62088;50.240;2.696;2022-12-18T04:56:48;34.97;;;19.90;;
73776;SDS011;62088;50.240;2.696;2022-12-18T04:59:15;36.40;;;19.98;;
73776;SDS011;62088;50.240;2.696;2022-12-18T05:01:42;35.20;;;21.08;;
73776;SDS011;62088;50.240;2.696;2022-12-18T05:04:10;38.80;;;20.58;;
73776;SDS011;62088;50.240;2.696;2022-12-18T05:06:37;34.47;;;20.92;;
73776;SDS011;62088;50.240;2.696;2022-12-18T05:09:04;37.67;;;21.10;;
73776;SDS011;62088;50.240;2.696;2022-12-18T05:11:31;45.83;;;23.10;;
73776;SDS011;62088;50.240;2.696;2022-12-18T05:13:58;33.22;;;20.20;;
73776;SDS011;62088;50.240;2.696;2022-12-18T05:16:25;45.35;;;23.85;;
73776;SDS011;62088;50.240;2.696;2022-12-18T05:18:52;38.47;;;21.98;;
73776;SDS011;62088;50.240;2.696;2022-12-18T05:21:19;35.95;;;21.90;;
73776;SDS011;62088;50.240;2.696;2022-12-18T05:23:46;38.45;;;21.58;;
73776;SDS011;62088;50.240;2.696;2022-12-18T05:26:17;38.33;;;21.77;;
73776;SDS011;62088;50.240;2.696;2022-12-18T05:28:44;38.38;;;21.95;;
73776;SDS011;62088;50.240;2.696;2022-12-18T05:31:12;38.15;;;22.17;;
73776;SDS011;62088;50.240;2.696;2022-12-18T05:33:40;38.38;;;22.02;;
73776;SDS011;62088;50.240;2.696;2022-12-18T05:36:08;33.67;;;20.80;;
73776;SDS011;62088;50.240;2.696;2022-12-18T05:38:37;37.47;;;22.10;;
73776;SDS011;62088;50.240;2.696;2022-12-18T05:41:05;42.20;;;20.83;;
73776;SDS011;62088;50.240;2.696;2022-12-18T05:43:34;39.13;;;21.50;;
73776;SDS011;62088;50.240;2.696;2022-12-18T05:46:03;41.10;;;21.48;;
73776;SDS011;62088;50.240;2.696;2022-12-18T05:48:34;38.83;;;23.05;;
73776;SDS011;62088;50.240;2.696;2022-12-18T05:51:11;39.47;;;21.50;;
73776;SDS011;62088;50.240;2.696;2022-12-18T05:53:41;40.40;;;22.45;;
73776;SDS011;62088;50.240;2.696;2022-12-18T05:56:10;39.92;;;22.38;;
73776;SDS011;62088;50.240;2.696;2022-12-18T05:58:39;35.35;;;19.45;;
73776;SDS011;62088;50.240;2.696;2022-12-18T06:01:11;39.17;;;21.95;;
73776;SDS011;62088;50.240;2.696;2022-12-18T06:03:39;35.78;;;21.52;;
73776;SDS011;62088;50.240;2.696;2022-12-18T06:06:40;43.45;;;24.42;;
73776;SDS011;62088;50.240;2.696;2022-12-18T06:09:00;41.33;;;22.70;;
73776;SDS011;62088;50.240;2.696;2022-12-18T06:11:27;37.97;;;22.08;;
73776;SDS011;62088;50.240;2.696;2022-12-18T06:13:55;38.55;;;21.25;;
73776;SDS011;62088;50.240;2.696;2022-12-18T06:16:25;38.28;;;21.13;;
73776;SDS011;62088;50.240;2.696;2022-12-18T06:19:00;39.78;;;21.13;;
73776;SDS011;62088;50.240;2.696;2022-12-18T06:21:29;32.30;;;20.42;;
73776;SDS011;62088;50.240;2.696;2022-12-18T06:23:57;42.22;;;21.50;;
73776;SDS011;62088;50.240;2.696;2022-12-18T06:26:24;36.60;;;19.90;;
73776;SDS011;62088;50.240;2.696;2022-12-18T06:28:54;39.35;;;21.23;;
73776;SDS011;62088;50.240;2.696;2022-12-18T06:31:23;34.85;;;21.05;;
73776;SDS011;62088;50.240;2.696;2022-12-18T06:33:50;35.70;;;21.08;;
73776;SDS011;62088;50.240;2.696;2022-12-18T06:36:19;34.47;;;20.85;;
73776;SDS011;62088;50.240;2.696;2022-12-18T06:38:47;39.90;;;21.95;;
73776;SDS011;62088;50.240;2.696;2022-12-18T06:41:15;43.08;;;21.98;;
73776;SDS011;62088;50.240;2.696;2022-12-18T06:43:45;37.65;;;21.63;;
73776;SDS011;62088;50.240;2.696;2022-12-18T06:46:12;42.08;;;22.83;;
73776;SDS011;62088;50.240;2.696;2022-12-18T06:48:39;42.22;;;22.50;;
73776;SDS011;62088;50.240;2.696;2022-12-18T06:51:06;37.40;;;21.80;;
73776;SDS011;62088;50.240;2.696;2022-12-18T06:53:34;47.25;;;23.25;;
73776;SDS011;62088;50.240;2.696;2022-12-18T06:56:01;41.60;;;25.60;;
73776;SDS011;62088;50.240;2.696;2022-12-18T06:58:35;37.13;;;22.13;;
73776;SDS011;62088;50.240;2.696;2022-12-18T07:01:03;46.53;;;22.48;;
73776;SDS011;62088;50.240;2.696;2022-12-18T07:03:32;43.53;;;24.55;;
73776;SDS011;62088;50.240;2.696;2022-12-18T07:05:59;40.08;;;22.15;;
73776;SDS011;62088;50.240;2.696;2022-12-18T07:08:26;42.47;;;23.70;;
73776;SDS011;62088;50.240;2.696;2022-12-18T07:10:54;41.50;;;22.73;;
73776;SDS011;62088;50.240;2.696;2022-12-18T07:13:22;45.50;;;24.08;;
73776;SDS011;62088;50.240;2.696;2022-12-18T07:15:49;39.33;;;21.30;;
73776;SDS011;62088;50.240;2.696;2022-12-18T07:18:16;41.47;;;23.55;;
73776;SDS011;62088;50.240;2.696;2022-12-18T07:20:43;42.58;;;22.88;;
73776;SDS011;62088;50.240;2.696;2022-12-18T07:23:12;40.88;;;24.15;;
73776;SDS011;62088;50.240;2.696;2022-12-18T07:25:39;44.38;;;23.20;;
73776;SDS011;62088;50.240;2.696;2022-12-18T07:28:07;44.58;;;25.02;;
73776;SDS011;62088;50.240;2.696;2022-12-18T07:33:07;43.80;;;21.00;;
73776;SDS011;62088;50.240;2.696;2022-12-18T07:35:34;40.28;;;22.58;;
73776;SDS011;62088;50.240;2.696;2022-12-18T07:38:01;38.15;;;21.88;;
73776;SDS011;62088;50.240;2.696;2022-12-18T07:40:28;44.70;;;22.83;;
73776;SDS011;62088;50.240;2.696;2022-12-18T07:42:55;47.08;;;23.85;;
73776;SDS011;62088;50.240;2.696;2022-12-18T07:45:22;40.08;;;23.17;;
73776;SDS011;62088;50.240;2.696;2022-12-18T07:47:49;44.92;;;23.77;;
73776;SDS011;62088;50.240;2.696;2022-12-18T07:50:16;44.70;;;23.98;;
73776;SDS011;62088;50.240;2.696;2022-12-18T07:52:43;42.17;;;23.67;;
73776;SDS011;62088;50.240;2.696;2022-12-18T07:55:10;41.47;;;23.25;;
73776;SDS011;62088;50.240;2.696;2022-12-18T07:57:38;44.50;;;24.73;;
73776;SDS011;62088;50.240;2.696;2022-12-18T08:00:17;47.97;;;23.77;;
73776;SDS011;62088;50.240;2.696;2022-12-18T08:02:46;44.65;;;24.63;;
73776;SDS011;62088;50.240;2.696;2022-12-18T08:05:14;45.22;;;24.83;;
73776;SDS011;62088;50.240;2.696;2022-12-18T08:07:41;43.85;;;24.50;;
73776;SDS011;62088;50.240;2.696;2022-12-18T08:10:08;40.55;;;23.30;;
73776;SDS011;62088;50.240;2.696;2022-12-18T08:12:35;42.10;;;25.02;;
73776;SDS011;62088;50.240;2.696;2022-12-18T08:15:02;44.15;;;23.77;;
73776;SDS011;62088;50.240;2.696;2022-12-18T08:17:30;45.83;;;25.85;;
73776;SDS011;62088;50.240;2.696;2022-12-18T08:19:57;49.03;;;25.20;;
73776;SDS011;62088;50.240;2.696;2022-12-18T08:22:24;43.40;;;24.42;;
73776;SDS011;62088;50.240;2.696;2022-12-18T08:24:51;44.28;;;25.20;;
73776;SDS011;62088;50.240;2.696;2022-12-18T08:27:18;44.13;;;24.60;;
73776;SDS011;62088;50.240;2.696;2022-12-18T08:29:55;45.70;;;25.55;;
73776;SDS011;62088;50.240;2.696;2022-12-18T08:32:23;43.20;;;24.15;;
73776;SDS011;62088;50.240;2.696;2022-12-18T08:34:51;48.45;;;25.65;;
73776;SDS011;62088;50.240;2.696;2022-12-18T08:37:18;47.25;;;25.90;;
73776;SDS011;62088;50.240;2.696;2022-12-18T08:39:45;45.53;;;24.60;;
73776;SDS011;62088;50.240;2.696;2022-12-18T08:42:12;47.42;;;26.52;;
73776;SDS011;62088;50.240;2.696;2022-12-18T08:44:59;45.35;;;26.33;;
73776;SDS011;62088;50.240;2.696;2022-12-18T08:47:27;50.63;;;26.38;;
73776;SDS011;62088;50.240;2.696;2022-12-18T08:49:53;62.97;;;25.75;;
73776;SDS011;62088;50.240;2.696;2022-12-18T08:52:21;45.15;;;24.85;;
73776;SDS011;62088;50.240;2.696;2022-12-18T08:54:48;48.65;;;26.63;;
73776;SDS011;62088;50.240;2.696;2022-12-18T08:57:15;48.53;;;25.92;;
73776;SDS011;62088;50.240;2.696;2022-12-18T08:59:46;44.60;;;26.33;;
73776;SDS011;62088;50.240;2.696;2022-12-18T09:02:13;53.20;;;28.42;;
73776;SDS011;62088;50.240;2.696;2022-12-18T09:04:40;49.97;;;27.48;;
73776;SDS011;62088;50.240;2.696;2022-12-18T09:07:07;47.25;;;26.75;;
73776;SDS011;62088;50.240;2.696;2022-12-18T09:09:35;53.05;;;28.23;;
73776;SDS011;62088;50.240;2.696;2022-12-18T09:12:02;48.05;;;25.77;;
73776;SDS011;62088;50.240;2.696;2022-12-18T09:14:29;48.97;;;26.90;;
73776;SDS011;62088;50.240;2.696;2022-12-18T09:16:56;42.60;;;25.30;;
73776;SDS011;62088;50.240;2.696;2022-12-18T09:19:23;43.25;;;25.63;;
73776;SDS011;62088;50.240;2.696;2022-12-18T09:21:50;46.53;;;26.38;;
73776;SDS011;62088;50.240;2.696;2022-12-18T09:24:17;51.92;;;28.27;;
73776;SDS011;62088;50.240;2.696;2022-12-18T09:26:46;46.88;;;25.95;;
73776;SDS011;62088;50.240;2.696;2022-12-18T09:29:14;42.47;;;25.13;;
73776;SDS011;62088;50.240;2.696;2022-12-18T09:31:44;48.72;;;25.60;;
73776;SDS011;62088;50.240;2.696;2022-12-18T09:34:11;44.60;;;26.98;;
73776;SDS011;62088;50.240;2.696;2022-12-18T09:36:38;43.85;;;26.60;;
73776;SDS011;62088;50.240;2.696;2022-12-18T09:39:05;48.22;;;25.58;;
73776;SDS011;62088;50.240;2.696;2022-12-18T09:49:38;46.72;;;26.85;;
73776;SDS011;62088;50.240;2.696;2022-12-18T09:52:28;47.28;;;26.52;;
73776;SDS011;62088;50.240;2.696;2022-12-18T09:55:44;45.55;;;26.30;;
73776;SDS011;62088;50.240;2.696;2022-12-18T09:58:13;45.83;;;26.25;;
73776;SDS011;62088;50.240;2.696;2022-12-18T10:00:54;47.03;;;27.48;;
73776;SDS011;62088;50.240;2.696;2022-12-18T10:03:22;45.38;;;26.45;;
73776;SDS011;62088;50.240;2.696;2022-12-18T10:05:53;50.15;;;27.52;;
73776;SDS011;62088;50.240;2.696;2022-12-18T10:08:54;50.70;;;27.27;;
73776;SDS011;62088;50.240;2.696;2022-12-18T10:14:30;53.10;;;28.77;;
73776;SDS011;62088;50.240;2.696;2022-12-18T10:19:56;45.45;;;26.60;;
73776;SDS011;62088;50.240;2.696;2022-12-18T10:22:47;45.40;;;26.77;;
73776;SDS011;62088;50.240;2.696;2022-12-18T10:25:31;52.28;;;28.48;;
73776;SDS011;62088;50.240;2.696;2022-12-18T10:28:09;47.10;;;26.67;;
73776;SDS011;62088;50.240;2.696;2022-12-18T10:33:17;46.50;;;25.27;;
73776;SDS011;62088;50.240;2.696;2022-12-18T10:35:47;52.22;;;27.80;;
73776;SDS011;62088;50.240;2.696;2022-12-18T10:43:23;47.65;;;27.35;;
73776;SDS011;62088;50.240;2.696;2022-12-18T10:53:53;46.22;;;26.95;;
73776;SDS011;62088;50.240;2.696;2022-12-18T10:56:28;47.80;;;26.55;;
73776;SDS011;62088;50.240;2.696;2022-12-18T10:59:02;55.65;;;29.25;;
73776;SDS011;62088;50.240;2.696;2022-12-18T11:01:47;47.72;;;27.55;;
73776;SDS011;62088;50.240;2.696;2022-12-18T11:04:19;50.92;;;29.15;;
73776;SDS011;62088;50.240;2.696;2022-12-18T11:07:01;49.60;;;27.85;;
73776;SDS011;62088;50.240;2.696;2022-12-18T11:09:33;51.58;;;28.42;;
73776;SDS011;62088;50.240;2.696;2022-12-18T11:12:03;47.67;;;28.45;;
73776;SDS011;62088;50.240;2.696;2022-12-18T11:17:19;51.28;;;28.00;;
73776;SDS011;62088;50.240;2.696;2022-12-18T11:19:58;52.25;;;26.65;;
73776;SDS011;62088;50.240;2.696;2022-12-18T11:22:27;48.28;;;27.38;;
73776;SDS011;62088;50.240;2.696;2022-12-18T11:25:01;50.03;;;27.80;;
73776;SDS011;62088;50.240;2.696;2022-12-18T11:28:00;53.08;;;28.90;;
73776;SDS011;62088;50.240;2.696;2022-12-18T11:30:33;55.03;;;29.30;;
73776;SDS011;62088;50.240;2.696;2022-12-18T11:33:13;49.47;;;27.35;;
73776;SDS011;62088;50.240;2.696;2022-12-18T11:35:52;52.73;;;28.63;;
73776;SDS011;62088;50.240;2.696;2022-12-18T11:38:24;49.67;;;26.92;;
73776;SDS011;62088;50.240;2.696;2022-12-18T11:40:57;57.45;;;28.48;;
73776;SDS011;62088;50.240;2.696;2022-12-18T11:43:34;48.80;;;28.40;;
73776;SDS011;62088;50.240;2.696;2022-12-18T11:46:10;53.45;;;27.98;;
73776;SDS011;62088;50.240;2.696;2022-12-18T11:48:47;51.50;;;28.15;;
73776;SDS011;62088;50.240;2.696;2022-12-18T11:51:32;53.70;;;28.70;;
73776;SDS011;62088;50.240;2.696;2022-12-18T11:54:09;49.97;;;28.08;;
73776;SDS011;62088;50.240;2.696;2022-12-18T11:56:44;49.53;;;27.17;;
73776;SDS011;62088;50.240;2.696;2022-12-18T12:02:14;54.10;;;29.20;;
73776;SDS011;62088;50.240;2.696;2022-12-18T12:10:54;54.08;;;27.08;;
73776;SDS011;62088;50.240;2.696;2022-12-18T12:13:38;49.63;;;28.90;;
73776;SDS011;62088;50.240;2.696;2022-12-18T12:16:24;45.95;;;26.50;;
73776;SDS011;62088;50.240;2.696;2022-12-18T12:21:40;48.70;;;28.58;;
73776;SDS011;62088;50.240;2.696;2022-12-18T12:26:50;50.08;;;29.00;;
73776;SDS011;62088;50.240;2.696;2022-12-18T12:38:26;48.03;;;27.00;;
73776;SDS011;62088;50.240;2.696;2022-12-18T12:41:00;53.25;;;27.60;;
73776;SDS011;62088;50.240;2.696;2022-12-18T12:43:52;45.88;;;26.73;;
73776;SDS011;62088;50.240;2.696;2022-12-18T12:46:23;53.13;;;28.33;;
73776;SDS011;62088;50.240;2.696;2022-12-18T12:48:55;51.70;;;28.10;;
73776;SDS011;62088;50.240;2.696;2022-12-18T12:51:33;53.28;;;29.20;;
73776;SDS011;62088;50.240;2.696;2022-12-18T12:54:05;54.38;;;28.48;;
73776;SDS011;62088;50.240;2.696;2022-12-18T12:59:15;48.78;;;26.48;;
73776;SDS011;62088;50.240;2.696;2022-12-18T13:01:59;51.35;;;26.63;;
73776;SDS011;62088;50.240;2.696;2022-12-18T13:04:39;51.83;;;28.92;;
73776;SDS011;62088;50.240;2.696;2022-12-18T13:07:35;51.40;;;27.73;;
73776;SDS011;62088;50.240;2.696;2022-12-18T13:12:53;58.67;;;30.65;;
73776;SDS011;62088;50.240;2.696;2022-12-18T13:15:31;47.88;;;27.52;;
73776;SDS011;62088;50.240;2.696;2022-12-18T13:21:05;52.17;;;30.33;;
73776;SDS011;62088;50.240;2.696;2022-12-18T13:23:50;53.35;;;28.52;;
73776;SDS011;62088;50.240;2.696;2022-12-18T13:28:53;49.15;;;26.77;;
73776;SDS011;62088;50.240;2.696;2022-12-18T13:39:59;49.38;;;27.83;;
73776;SDS011;62088;50.240;2.696;2022-12-18T13:42:37;49.85;;;27.58;;
73776;SDS011;62088;50.240;2.696;2022-12-18T13:45:40;49.13;;;26.23;;
73776;SDS011;62088;50.240;2.696;2022-12-18T13:48:16;49.50;;;27.15;;
73776;SDS011;62088;50.240;2.696;2022-12-18T13:50:48;45.83;;;26.55;;
73776;SDS011;62088;50.240;2.696;2022-12-18T13:53:30;51.05;;;26.33;;
73776;SDS011;62088;50.240;2.696;2022-12-18T13:56:03;51.25;;;26.02;;
73776;SDS011;62088;50.240;2.696;2022-12-18T13:58:32;50.25;;;27.98;;
73776;SDS011;62088;50.240;2.696;2022-12-18T14:01:01;48.30;;;25.70;;
73776;SDS011;62088;50.240;2.696;2022-12-18T14:03:31;46.30;;;25.70;;
73776;SDS011;62088;50.240;2.696;2022-12-18T14:06:02;45.38;;;25.70;;
73776;SDS011;62088;50.240;2.696;2022-12-18T14:08:34;49.78;;;27.52;;
73776;SDS011;62088;50.240;2.696;2022-12-18T14:11:05;44.85;;;25.92;;
73776;SDS011;62088;50.240;2.696;2022-12-18T14:13:38;49.53;;;26.13;;
73776;SDS011;62088;50.240;2.696;2022-12-18T14:18:47;46.92;;;25.42;;
73776;SDS011;62088;50.240;2.696;2022-12-18T14:21:40;48.33;;;25.55;;
73776;SDS011;62088;50.240;2.696;2022-12-18T14:24:19;45.15;;;25.27;;
73776;SDS011;62088;50.240;2.696;2022-12-18T14:26:48;49.83;;;26.38;;
73776;SDS011;62088;50.240;2.696;2022-12-18T14:29:18;51.53;;;27.50;;
73776;SDS011;62088;50.240;2.696;2022-12-18T14:34:43;54.10;;;28.48;;
73776;SDS011;62088;50.240;2.696;2022-12-18T14:37:12;48.55;;;27.67;;
73776;SDS011;62088;50.240;2.696;2022-12-18T14:39:51;49.70;;;27.50;;
73776;SDS011;62088;50.240;2.696;2022-12-18T14:42:36;47.90;;;26.13;;
73776;SDS011;62088;50.240;2.696;2022-12-18T14:48:09;45.75;;;25.38;;
73776;SDS011;62088;50.240;2.696;2022-12-18T14:50:59;53.95;;;27.40;;
73776;SDS011;62088;50.240;2.696;2022-12-18T14:53:38;52.38;;;27.48;;
73776;SDS011;62088;50.240;2.696;2022-12-18T14:56:21;52.03;;;27.35;;
73776;SDS011;62088;50.240;2.696;2022-12-18T14:58:49;46.92;;;27.15;;
73776;SDS011;62088;50.240;2.696;2022-12-18T15:01:26;46.92;;;26.00;;
73776;SDS011;62088;50.240;2.696;2022-12-18T15:03:54;48.88;;;27.65;;
73776;SDS011;62088;50.240;2.696;2022-12-18T15:06:24;50.80;;;28.25;;
73776;SDS011;62088;50.240;2.696;2022-12-18T15:08:58;52.70;;;27.98;;
73776;SDS011;62088;50.240;2.696;2022-12-18T15:11:32;51.95;;;29.13;;
73776;SDS011;62088;50.240;2.696;2022-12-18T15:14:30;50.95;;;27.08;;
73776;SDS011;62088;50.240;2.696;2022-12-18T15:17:02;50.90;;;25.77;;
73776;SDS011;62088;50.240;2.696;2022-12-18T15:19:34;57.08;;;28.45;;
73776;SDS011;62088;50.240;2.696;2022-12-18T15:22:13;53.83;;;27.42;;
73776;SDS011;62088;50.240;2.696;2022-12-18T15:25:25;47.83;;;25.02;;
73776;SDS011;62088;50.240;2.696;2022-12-18T15:28:03;54.92;;;28.02;;
73776;SDS011;62088;50.240;2.696;2022-12-18T15:30:57;47.47;;;25.48;;
73776;SDS011;62088;50.240;2.696;2022-12-18T15:33:30;50.40;;;27.70;;
73776;SDS011;62088;50.240;2.696;2022-12-18T15:36:00;46.88;;;26.85;;
73776;SDS011;62088;50.240;2.696;2022-12-18T15:38:31;51.13;;;26.73;;
73776;SDS011;62088;50.240;2.696;2022-12-18T15:40:58;52.55;;;27.98;;
73776;SDS011;62088;50.240;2.696;2022-12-18T15:43:26;46.28;;;26.33;;
73776;SDS011;62088;50.240;2.696;2022-12-18T15:46:04;50.60;;;26.48;;
73776;SDS011;62088;50.240;2.696;2022-12-18T15:48:46;48.88;;;26.83;;
73776;SDS011;62088;50.240;2.696;2022-12-18T15:53:53;50.47;;;26.52;;
73776;SDS011;62088;50.240;2.696;2022-12-18T15:56:22;49.45;;;26.13;;
73776;SDS011;62088;50.240;2.696;2022-12-18T15:59:10;50.97;;;26.65;;
73776;SDS011;62088;50.240;2.696;2022-12-18T16:01:39;50.85;;;25.63;;
73776;SDS011;62088;50.240;2.696;2022-12-18T16:04:10;54.67;;;27.30;;
73776;SDS011;62088;50.240;2.696;2022-12-18T16:06:39;48.65;;;26.77;;
73776;SDS011;62088;50.240;2.696;2022-12-18T16:09:27;47.55;;;26.10;;
73776;SDS011;62088;50.240;2.696;2022-12-18T16:11:54;56.67;;;27.48;;
73776;SDS011;62088;50.240;2.696;2022-12-18T16:14:39;52.25;;;26.58;;
73776;SDS011;62088;50.240;2.696;2022-12-18T16:17:09;49.42;;;26.30;;
73776;SDS011;62088;50.240;2.696;2022-12-18T16:19:37;51.53;;;26.80;;
73776;SDS011;62088;50.240;2.696;2022-12-18T16:22:05;54.72;;;26.77;;
73776;SDS011;62088;50.240;2.696;2022-12-18T16:24:32;51.60;;;26.13;;
73776;SDS011;62088;50.240;2.696;2022-12-18T16:27:02;51.22;;;26.85;;
73776;SDS011;62088;50.240;2.696;2022-12-18T16:29:29;51.42;;;27.70;;
73776;SDS011;62088;50.240;2.696;2022-12-18T16:31:57;46.92;;;26.17;;
73776;SDS011;62088;50.240;2.696;2022-12-18T16:34:32;52.97;;;27.52;;
73776;SDS011;62088;50.240;2.696;2022-12-18T16:37:03;53.85;;;27.65;;
73776;SDS011;62088;50.240;2.696;2022-12-18T16:39:33;51.53;;;25.75;;
73776;SDS011;62088;50.240;2.696;2022-12-18T16:42:10;53.45;;;27.15;;
73776;SDS011;62088;50.240;2.696;2022-12-18T16:44:38;48.15;;;25.48;;
73776;SDS011;62088;50.240;2.696;2022-12-18T16:47:06;48.40;;;26.40;;